createdAt,value
2022-12-06T00:01:23.746Z,4.80
2022-12-06T00:03:56.654Z,4.35
2022-12-06T00:06:26.022Z,4.78
2022-12-06T00:08:53.179Z,4.78
2022-12-06T00:11:26.151Z,5.00
2022-12-06T00:13:55.042Z,5.20
2022-12-06T00:16:22.818Z,5.03
2022-12-06T00:18:49.768Z,4.50
2022-12-06T00:21:25.959Z,6.07
2022-12-06T00:23:55.590Z,4.80
2022-12-06T00:26:22.781Z,5.25
2022-12-06T00:28:53.459Z,5.40
2022-12-06T00:31:22.289Z,5.43
2022-12-06T00:33:49.462Z,5.00
2022-12-06T00:36:20.714Z,5.57
2022-12-06T00:38:48.284Z,4.90
2022-12-06T00:41:17.811Z,4.88
2022-12-06T00:43:45.825Z,4.55
2022-12-06T00:46:16.407Z,5.38
2022-12-06T00:48:47.190Z,5.55
2022-12-06T00:51:15.630Z,5.13
2022-12-06T00:53:42.833Z,5.55
2022-12-06T00:56:09.685Z,5.10
2022-12-06T00:58:36.427Z,4.70
2022-12-06T01:01:16.920Z,4.85
2022-12-06T01:03:45.270Z,4.60
2022-12-06T01:06:17.015Z,4.88
2022-12-06T01:08:44.022Z,5.22
2022-12-06T01:11:13.066Z,5.30
2022-12-06T01:13:40.178Z,4.55
2022-12-06T01:16:08.786Z,4.85
2022-12-06T01:18:35.830Z,4.95
2022-12-06T01:21:07.698Z,4.65
2022-12-06T01:23:34.490Z,4.97
2022-12-06T01:26:01.253Z,4.72
2022-12-06T01:28:27.945Z,4.50
2022-12-06T01:30:54.689Z,4.43
2022-12-06T01:33:21.349Z,4.13
2022-12-06T01:35:48.124Z,4.78
2022-12-06T01:38:14.827Z,4.10
2022-12-06T01:40:47.201Z,4.82
2022-12-06T01:43:35.644Z,4.55
2022-12-06T01:46:23.429Z,4.57
2022-12-06T01:49:12.359Z,4.88
2022-12-06T01:51:42.817Z,5.05
2022-12-06T01:54:12.866Z,4.43
2022-12-06T01:56:40.469Z,5.30
2022-12-06T01:59:08.381Z,4.78
2022-12-06T02:01:35.901Z,4.78
2022-12-06T02:04:02.962Z,4.72
2022-12-06T02:06:31.143Z,4.82
2022-12-06T02:09:00.899Z,4.75
2022-12-06T02:11:32.202Z,3.95
2022-12-06T02:14:04.426Z,4.38
2022-12-06T02:16:57.899Z,4.38
2022-12-06T02:19:51.158Z,4.10
2022-12-06T02:22:38.070Z,3.65
2022-12-06T02:25:43.435Z,4.10
2022-12-06T02:28:19.402Z,4.10
2022-12-06T02:30:48.910Z,4.43
2022-12-06T02:33:21.794Z,4.50
2022-12-06T02:36:09.633Z,4.60
2022-12-06T02:38:42.303Z,4.10
2022-12-06T02:43:43.641Z,4.03
2022-12-06T02:46:13.265Z,4.13
2022-12-06T02:48:42.634Z,3.95
2022-12-06T02:51:14.190Z,3.83
2022-12-06T02:53:45.226Z,4.10
2022-12-06T02:56:13.491Z,3.53
2022-12-06T02:58:40.119Z,3.90
2022-12-06T03:01:19.606Z,3.78
2022-12-06T03:03:51.230Z,3.53
2022-12-06T03:06:35.050Z,3.40
2022-12-06T03:09:16.396Z,3.55
2022-12-06T03:12:24.822Z,3.47
2022-12-06T03:14:58.588Z,3.28
2022-12-06T03:17:38.658Z,3.50
2022-12-06T03:20:12.178Z,3.80
2022-12-06T03:22:48.013Z,3.35
2022-12-06T03:25:15.939Z,3.22
2022-12-06T03:27:43.722Z,3.78
2022-12-06T03:30:13.473Z,3.47
2022-12-06T03:32:45.839Z,3.60
2022-12-06T03:35:17.725Z,2.63
2022-12-06T03:37:49.574Z,3.13
2022-12-06T03:40:30.122Z,3.92
2022-12-06T03:42:57.704Z,2.90
2022-12-06T03:45:31.664Z,3.35
2022-12-06T03:48:08.226Z,3.20
2022-12-06T03:50:43.642Z,2.92
2022-12-06T03:53:10.383Z,2.65
2022-12-06T03:55:37.099Z,2.53
2022-12-06T03:58:03.838Z,3.78
2022-12-06T04:00:30.697Z,3.38
2022-12-06T04:02:57.443Z,3.10
2022-12-06T04:05:24.078Z,2.75
2022-12-06T04:07:50.791Z,3.28
2022-12-06T04:10:17.578Z,3.00
2022-12-06T04:13:02.363Z,2.85
2022-12-06T04:15:37.912Z,3.05
2022-12-06T04:18:15.925Z,2.85
2022-12-06T04:21:18.985Z,2.50
2022-12-06T04:23:51.177Z,2.97
2022-12-06T04:26:19.917Z,2.88
2022-12-06T04:29:05.885Z,2.85
2022-12-06T04:31:51.329Z,2.50
2022-12-06T04:34:36.585Z,3.28
2022-12-06T04:37:22.690Z,2.72
2022-12-06T04:39:50.141Z,2.78
2022-12-06T04:42:35.605Z,2.38
2022-12-06T04:45:02.420Z,2.80
2022-12-06T04:47:29.328Z,2.53
2022-12-06T04:49:56.118Z,2.47
2022-12-06T04:52:22.870Z,2.80
2022-12-06T04:54:49.518Z,2.78
2022-12-06T04:57:17.219Z,2.47
2022-12-06T04:59:46.169Z,2.03
2022-12-06T05:02:14.856Z,2.53
2022-12-06T05:04:41.945Z,2.38
2022-12-06T05:07:09.675Z,2.20
2022-12-06T05:09:36.553Z,2.35
2022-12-06T05:12:03.491Z,1.95
2022-12-06T05:14:30.245Z,1.75
2022-12-06T05:16:56.913Z,2.03
2022-12-06T05:19:23.617Z,2.47
2022-12-06T05:21:50.243Z,1.85
2022-12-06T05:24:17.082Z,2.67
2022-12-06T05:26:43.801Z,2.42
2022-12-06T05:29:10.493Z,2.35
2022-12-06T05:31:37.370Z,1.80
2022-12-06T05:34:04.020Z,2.05
2022-12-06T05:36:30.752Z,1.75
2022-12-06T05:38:57.633Z,2.50
2022-12-06T05:41:24.962Z,2.20
2022-12-06T05:43:51.851Z,1.55
2022-12-06T05:46:18.803Z,2.42
2022-12-06T05:48:45.605Z,2.08
2022-12-06T05:51:12.778Z,1.92
2022-12-06T05:53:41.033Z,2.00
2022-12-06T05:56:10.141Z,1.85
2022-12-06T05:58:37.130Z,1.70
2022-12-06T06:01:05.411Z,2.00
2022-12-06T06:03:32.256Z,1.70
2022-12-06T06:06:00.432Z,2.40
2022-12-06T06:08:28.612Z,1.77
2022-12-06T06:10:55.814Z,2.05
2022-12-06T06:13:22.943Z,2.20
2022-12-06T06:15:50.955Z,2.00
2022-12-06T06:18:18.691Z,1.83
2022-12-06T06:20:53.576Z,2.08
2022-12-06T06:23:20.686Z,2.10
2022-12-06T06:25:48.210Z,2.38
2022-12-06T06:28:15.501Z,2.47
2022-12-06T06:30:42.429Z,2.53
2022-12-06T06:33:09.585Z,2.42
2022-12-06T06:35:36.596Z,1.90
2022-12-06T06:38:03.470Z,2.20
2022-12-06T06:40:30.273Z,2.90
2022-12-06T06:42:57.726Z,5.05
2022-12-06T06:45:33.485Z,4.35
2022-12-06T06:48:00.219Z,3.58
2022-12-06T06:50:26.911Z,3.28
2022-12-06T06:52:53.696Z,3.20
2022-12-06T06:55:20.461Z,2.75
2022-12-06T06:57:47.582Z,2.70
2022-12-06T07:00:14.923Z,2.70
2022-12-06T07:02:41.561Z,2.90
2022-12-06T07:05:08.471Z,2.58
2022-12-06T07:07:35.168Z,2.80
2022-12-06T07:10:02.098Z,3.10
2022-12-06T07:12:29.037Z,4.03
2022-12-06T07:14:55.778Z,5.40
2022-12-06T07:17:24.515Z,4.47
2022-12-06T07:19:51.219Z,5.57
2022-12-06T07:22:17.854Z,5.72
2022-12-06T07:24:49.191Z,5.30
2022-12-06T07:27:18.925Z,5.20
2022-12-06T07:29:45.549Z,3.67
2022-12-06T07:32:12.150Z,3.60
2022-12-06T07:34:38.757Z,3.20
2022-12-06T07:37:06.401Z,3.22
2022-12-06T07:39:33.067Z,2.72
2022-12-06T07:42:18.081Z,2.70
2022-12-06T07:45:05.518Z,2.65
2022-12-06T07:47:34.253Z,1.98
2022-12-06T07:50:01.340Z,2.40
2022-12-06T07:52:35.905Z,2.22
2022-12-06T07:55:05.382Z,2.70
2022-12-06T07:57:32.160Z,2.30
2022-12-06T07:59:59.136Z,2.15
2022-12-06T08:02:27.523Z,2.70
2022-12-06T08:04:54.740Z,2.88
2022-12-06T08:07:25.558Z,3.90
2022-12-06T08:09:54.435Z,4.55
2022-12-06T08:12:21.803Z,6.82
2022-12-06T08:14:48.665Z,6.18
2022-12-06T08:17:15.844Z,7.40
2022-12-06T08:19:42.490Z,11.07
2022-12-06T08:22:09.177Z,12.30
2022-12-06T08:24:35.831Z,19.20
2022-12-06T08:27:02.528Z,14.15
2022-12-06T08:29:30.321Z,12.43
2022-12-06T08:31:56.983Z,12.50
2022-12-06T08:34:23.678Z,6.05
2022-12-06T08:36:50.315Z,4.00
2022-12-06T08:39:16.945Z,3.17
2022-12-06T08:41:55.692Z,2.90
2022-12-06T08:44:22.560Z,3.22
2022-12-06T08:46:49.469Z,3.25
2022-12-06T08:49:17.356Z,2.88
2022-12-06T08:51:44.605Z,3.50
2022-12-06T08:54:14.586Z,4.50
2022-12-06T08:56:41.244Z,4.50
2022-12-06T08:59:08.317Z,4.47
2022-12-06T09:01:38.129Z,5.40
2022-12-06T09:04:07.800Z,4.30
2022-12-06T09:06:36.618Z,4.20
2022-12-06T09:09:03.414Z,3.80
2022-12-06T09:11:30.207Z,3.63
2022-12-06T09:13:56.974Z,3.25
2022-12-06T09:16:24.327Z,3.15
2022-12-06T09:18:51.963Z,3.28
2022-12-06T09:21:21.791Z,2.92
2022-12-06T09:23:48.761Z,3.17
2022-12-06T09:26:15.804Z,3.00
2022-12-06T09:28:44.439Z,3.20
2022-12-06T09:31:11.400Z,3.17
2022-12-06T09:33:38.578Z,2.53
2022-12-06T09:36:16.141Z,2.80
2022-12-06T09:38:45.543Z,3.38
2022-12-06T09:41:24.146Z,2.75
2022-12-06T09:43:59.743Z,2.83
2022-12-06T09:46:50.794Z,3.20
2022-12-06T09:49:27.802Z,2.70
2022-12-06T09:52:05.736Z,2.50
2022-12-06T09:54:54.573Z,2.42
2022-12-06T09:57:34.619Z,3.38
2022-12-06T10:00:11.619Z,2.72
2022-12-06T10:03:03.777Z,2.65
2022-12-06T10:05:36.355Z,2.08
2022-12-06T10:08:26.888Z,1.73
2022-12-06T10:10:59.909Z,1.95
2022-12-06T10:13:41.169Z,2.38
2022-12-06T10:16:26.048Z,1.92
2022-12-06T10:19:18.706Z,1.95
2022-12-06T10:21:51.426Z,2.20
2022-12-06T10:24:26.791Z,1.83
2022-12-06T10:26:55.510Z,1.70
2022-12-06T10:29:53.830Z,2.20
2022-12-06T10:32:29.243Z,1.48
2022-12-06T10:35:13.136Z,1.45
2022-12-06T10:37:57.483Z,1.90
2022-12-06T10:41:04.494Z,1.77
2022-12-06T10:43:55.978Z,1.88
2022-12-06T10:46:55.923Z,1.65
2022-12-06T10:49:33.561Z,1.83
2022-12-06T10:52:31.320Z,2.28
2022-12-06T10:55:12.929Z,2.25
2022-12-06T10:57:57.222Z,2.28
2022-12-06T11:00:26.351Z,2.30
2022-12-06T11:03:11.931Z,2.72
2022-12-06T11:05:57.589Z,2.40
2022-12-06T11:08:37.979Z,2.63
2022-12-06T11:11:10.445Z,2.88
2022-12-06T11:14:11.666Z,2.45
2022-12-06T11:16:44.232Z,2.65
2022-12-06T11:19:45.451Z,2.65
2022-12-06T11:22:39.464Z,2.70
2022-12-06T11:25:14.437Z,2.28
2022-12-06T11:27:49.539Z,2.33
2022-12-06T11:30:20.575Z,2.25
2022-12-06T11:32:50.661Z,2.60
2022-12-06T11:35:25.152Z,2.30
2022-12-06T11:38:01.933Z,2.40
2022-12-06T11:40:43.986Z,2.40
2022-12-06T11:43:18.003Z,2.55
2022-12-06T11:45:45.853Z,2.55
2022-12-06T11:48:24.396Z,2.75
2022-12-06T11:50:53.185Z,2.50
2022-12-06T11:53:25.328Z,2.47
2022-12-06T11:55:55.809Z,2.65
2022-12-06T11:58:44.486Z,2.72
2022-12-06T12:01:14.407Z,3.00
2022-12-06T12:03:44.151Z,2.97
2022-12-06T12:06:27.164Z,2.72
2022-12-06T12:09:01.577Z,2.60
2022-12-06T12:11:32.142Z,2.50
2022-12-06T12:14:02.131Z,2.85
2022-12-06T12:16:37.327Z,2.95
2022-12-06T12:19:27.776Z,2.78
2022-12-06T12:21:57.332Z,2.88
2022-12-06T12:27:35.966Z,2.85
2022-12-06T12:30:22.110Z,3.20
2022-12-06T12:33:10.842Z,2.90
2022-12-06T12:35:40.585Z,2.78
2022-12-06T12:38:10.320Z,3.08
2022-12-06T12:40:43.303Z,3.08
2022-12-06T12:43:13.118Z,2.95
2022-12-06T12:45:41.430Z,2.58
2022-12-06T12:48:27.069Z,2.72
2022-12-06T12:50:59.854Z,2.30
2022-12-06T12:53:41.597Z,2.45
2022-12-06T12:56:11.518Z,2.50
2022-12-06T12:58:38.442Z,2.63
2022-12-06T13:01:29.545Z,2.38
2022-12-06T13:04:33.470Z,2.72
2022-12-06T13:07:11.499Z,2.33
2022-12-06T13:09:47.976Z,2.45
2022-12-06T13:12:44.977Z,2.60
2022-12-06T13:15:20.338Z,2.78
2022-12-06T13:17:59.762Z,2.33
2022-12-06T13:20:30.150Z,2.65
2022-12-06T13:23:15.142Z,2.08
2022-12-06T13:26:14.866Z,1.98
2022-12-06T13:28:48.386Z,2.30
2022-12-06T13:31:24.646Z,2.80
2022-12-06T13:34:00.183Z,2.40
2022-12-06T13:36:30.869Z,2.30
2022-12-06T13:38:57.558Z,1.92
2022-12-06T13:41:54.750Z,2.10
2022-12-06T13:44:51.303Z,1.90
2022-12-06T13:47:27.051Z,1.70
2022-12-06T13:49:54.706Z,2.20
2022-12-06T13:52:43.024Z,2.15
2022-12-06T13:55:24.987Z,2.13
2022-12-06T13:57:57.067Z,1.80
2022-12-06T14:00:29.854Z,1.90
2022-12-06T14:03:02.523Z,2.00
2022-12-06T14:08:39.119Z,1.70
2022-12-06T14:11:39.737Z,1.83
2022-12-06T14:14:16.474Z,1.83
2022-12-06T14:16:57.193Z,1.75
2022-12-06T14:19:29.539Z,1.60
2022-12-06T14:21:56.220Z,2.00
2022-12-06T14:24:34.969Z,1.52
2022-12-06T14:27:18.049Z,3.00
2022-12-06T14:30:06.304Z,2.55
2022-12-06T14:32:46.018Z,2.10
2022-12-06T14:35:17.348Z,2.10
2022-12-06T14:37:54.445Z,1.77
2022-12-06T14:40:56.481Z,2.30
2022-12-06T14:43:26.005Z,2.20
2022-12-06T14:45:53.950Z,2.10
2022-12-06T14:48:22.571Z,1.83
2022-12-06T14:50:51.136Z,2.20
2022-12-06T14:53:33.473Z,2.58
2022-12-06T14:56:04.561Z,2.55
2022-12-06T14:58:35.140Z,2.63
2022-12-06T15:01:11.302Z,2.60
2022-12-06T15:03:38.604Z,2.85
2022-12-06T15:06:23.342Z,2.13
2022-12-06T15:09:10.276Z,2.42
2022-12-06T15:11:58.196Z,2.00
2022-12-06T15:14:44.913Z,1.90
2022-12-06T15:17:11.647Z,2.25
2022-12-06T15:19:44.774Z,2.33
2022-12-06T15:22:31.741Z,2.58
2022-12-06T15:25:00.108Z,2.60
2022-12-06T15:27:27.871Z,2.28
2022-12-06T15:29:54.870Z,2.25
2022-12-06T15:32:24.666Z,2.70
2022-12-06T15:34:51.366Z,2.55
2022-12-06T15:40:05.979Z,2.50
2022-12-06T15:42:32.761Z,2.58
2022-12-06T15:44:59.541Z,2.30
2022-12-06T15:47:26.345Z,2.20
2022-12-06T15:49:57.798Z,2.42
2022-12-06T15:52:24.536Z,2.20
2022-12-06T15:54:51.467Z,2.50
2022-12-06T15:57:18.198Z,2.42
2022-12-06T15:59:44.903Z,2.63
2022-12-06T16:02:15.303Z,2.47
2022-12-06T16:04:43.029Z,2.97
2022-12-06T16:07:10.616Z,2.53
2022-12-06T16:09:37.751Z,3.10
2022-12-06T16:12:04.714Z,3.20
2022-12-06T16:14:31.413Z,2.50
2022-12-06T16:16:58.070Z,2.80
2022-12-06T16:19:44.754Z,3.25
2022-12-06T16:22:11.519Z,3.67
2022-12-06T16:24:38.205Z,3.75
2022-12-06T16:27:05.134Z,3.30
2022-12-06T16:29:31.801Z,2.80
2022-12-06T16:31:58.744Z,3.20
2022-12-06T16:34:27.342Z,3.55
2022-12-06T16:37:02.234Z,3.85
2022-12-06T16:39:30.695Z,3.83
2022-12-06T16:41:57.565Z,3.92
2022-12-06T16:44:24.327Z,4.32
2022-12-06T16:46:51.906Z,3.67
2022-12-06T16:52:14.590Z,3.25
2022-12-06T16:54:42.026Z,3.50
2022-12-06T16:57:12.888Z,3.00
2022-12-06T16:59:40.351Z,3.78
2022-12-06T17:02:30.215Z,3.97
2022-12-06T17:04:58.835Z,3.33
2022-12-06T17:07:25.954Z,4.15
2022-12-06T17:09:53.407Z,3.47
2022-12-06T17:12:20.295Z,4.43
2022-12-06T17:14:47.008Z,4.55
2022-12-06T17:17:16.003Z,6.18
2022-12-06T17:19:43.257Z,7.25
2022-12-06T17:22:11.894Z,5.80
2022-12-06T17:24:39.011Z,6.63
2022-12-06T17:27:06.919Z,5.45
2022-12-06T17:29:34.265Z,7.15
2022-12-06T17:32:01.262Z,5.40
2022-12-06T17:34:27.964Z,5.55
2022-12-06T17:36:56.005Z,5.00
2022-12-06T17:39:22.829Z,5.20
2022-12-06T17:42:08.190Z,4.43
2022-12-06T17:44:35.027Z,4.97
2022-12-06T17:47:02.080Z,4.90
2022-12-06T17:49:29.035Z,4.40
2022-12-06T17:51:56.265Z,5.00
2022-12-06T17:54:23.509Z,5.35
2022-12-06T17:56:52.766Z,5.80
2022-12-06T17:59:25.262Z,8.88
2022-12-06T18:04:40.588Z,14.15
2022-12-06T18:07:07.346Z,11.32
2022-12-06T18:09:34.056Z,8.52
2022-12-06T18:12:01.125Z,5.22
2022-12-06T18:14:28.249Z,4.82
2022-12-06T18:16:55.630Z,5.97
2022-12-06T18:19:23.220Z,6.22
2022-12-06T18:21:52.019Z,6.55
2022-12-06T18:24:22.082Z,7.63
2022-12-06T18:26:51.191Z,6.53
2022-12-06T18:29:23.362Z,6.10
2022-12-06T18:31:51.151Z,6.72
2022-12-06T18:34:18.487Z,6.68
2022-12-06T18:36:45.207Z,6.53
2022-12-06T18:39:15.998Z,6.60
2022-12-06T18:41:46.266Z,6.53
2022-12-06T18:44:13.605Z,6.05
2022-12-06T18:46:42.345Z,6.32
2022-12-06T18:49:10.946Z,7.45
2022-12-06T18:51:38.571Z,6.90
2022-12-06T18:54:06.043Z,6.10
2022-12-06T18:56:34.502Z,5.95
2022-12-06T18:59:02.884Z,5.50
2022-12-06T19:01:32.306Z,4.93
2022-12-06T19:04:00.744Z,5.30
2022-12-06T19:06:30.080Z,5.80
2022-12-06T19:09:00.127Z,4.90
2022-12-06T19:11:26.898Z,4.93
2022-12-06T19:13:55.764Z,4.38
2022-12-06T19:16:32.886Z,5.03
2022-12-06T19:19:01.171Z,5.20
2022-12-06T19:21:28.266Z,5.32
2022-12-06T19:23:56.848Z,5.90
2022-12-06T19:26:25.118Z,6.28
2022-12-06T19:28:52.319Z,6.97
2022-12-06T19:31:20.446Z,8.40
2022-12-06T19:33:47.327Z,10.52
2022-12-06T19:36:16.442Z,8.32
2022-12-06T19:38:43.609Z,9.13
2022-12-06T19:41:14.442Z,8.75
2022-12-06T19:44:00.187Z,8.38
2022-12-06T19:46:28.503Z,7.75
2022-12-06T19:49:00.822Z,7.57
2022-12-06T19:51:28.993Z,6.97
2022-12-06T19:53:57.818Z,6.97
2022-12-06T19:56:25.819Z,7.47
2022-12-06T19:58:55.216Z,7.40
2022-12-06T20:01:27.072Z,6.97
2022-12-06T20:03:57.331Z,7.28
2022-12-06T20:06:26.137Z,6.35
2022-12-06T20:08:54.992Z,6.40
2022-12-06T20:11:42.046Z,6.78
2022-12-06T20:14:12.653Z,6.70
2022-12-06T20:16:39.609Z,6.68
2022-12-06T20:19:07.421Z,6.32
2022-12-06T20:21:34.962Z,6.78
2022-12-06T20:24:02.249Z,6.80
2022-12-06T20:26:31.365Z,6.60
2022-12-06T20:28:58.373Z,6.95
2022-12-06T20:31:27.720Z,7.57
2022-12-06T20:33:59.411Z,7.25
2022-12-06T20:36:28.031Z,6.82
2022-12-06T20:38:55.916Z,7.80
2022-12-06T20:41:25.437Z,8.57
2022-12-06T20:43:52.629Z,9.40
2022-12-06T20:46:25.054Z,8.77
2022-12-06T20:48:55.723Z,9.15
2022-12-06T20:51:26.174Z,7.80
2022-12-06T20:53:57.330Z,8.63
2022-12-06T20:56:29.091Z,7.70
2022-12-06T20:58:57.842Z,7.70
2022-12-06T21:01:27.580Z,6.28
2022-12-06T21:03:54.959Z,7.85
2022-12-06T21:06:23.170Z,7.47
2022-12-06T21:08:50.971Z,8.18
2022-12-06T21:11:23.625Z,8.20
2022-12-06T21:13:55.158Z,9.13
2022-12-06T21:16:27.795Z,8.95
2022-12-06T21:21:27.329Z,7.18
2022-12-06T21:23:54.034Z,7.40
2022-12-06T21:26:20.852Z,7.20
2022-12-06T21:28:47.724Z,8.40
2022-12-06T21:31:14.511Z,8.18
2022-12-06T21:33:41.198Z,7.90
2022-12-06T21:36:08.169Z,8.88
2022-12-06T21:38:35.206Z,8.60
2022-12-06T21:41:07.272Z,11.68
2022-12-06T21:43:35.738Z,15.05
2022-12-06T21:46:04.299Z,15.07
2022-12-06T21:48:31.342Z,15.48
2022-12-06T21:51:03.710Z,16.48
2022-12-06T21:53:30.894Z,21.02
2022-12-06T21:55:57.663Z,18.27
2022-12-06T21:58:24.702Z,14.10
2022-12-06T22:00:51.589Z,10.05
2022-12-06T22:03:22.890Z,8.90
2022-12-06T22:05:50.141Z,8.10
2022-12-06T22:08:16.881Z,8.23
2022-12-06T22:10:43.675Z,7.43
2022-12-06T22:13:10.346Z,6.65
2022-12-06T22:15:37.533Z,7.15
2022-12-06T22:18:04.368Z,6.15
2022-12-06T22:20:31.079Z,7.00
2022-12-06T22:22:57.745Z,6.50
2022-12-06T22:25:24.553Z,5.95
2022-12-06T22:27:53.160Z,5.55
2022-12-06T22:30:20.283Z,5.78
2022-12-06T22:32:47.001Z,5.78
2022-12-06T22:35:13.781Z,6.65
2022-12-06T22:37:40.524Z,6.70
2022-12-06T22:40:08.285Z,7.05
2022-12-06T22:42:35.287Z,7.13
2022-12-06T22:45:01.986Z,7.05
2022-12-06T22:47:28.626Z,6.60
2022-12-06T22:49:55.403Z,7.38
2022-12-06T22:52:22.046Z,6.28
2022-12-06T22:54:48.763Z,6.68
2022-12-06T22:57:15.389Z,6.78
2022-12-06T22:59:42.029Z,5.95
2022-12-06T23:02:08.691Z,5.68
2022-12-06T23:04:35.402Z,5.68
2022-12-06T23:07:02.099Z,5.32
2022-12-06T23:09:28.809Z,5.95
2022-12-06T23:11:55.586Z,6.38
2022-12-06T23:14:22.294Z,6.20
2022-12-06T23:16:49.314Z,6.72
2022-12-06T23:19:16.023Z,5.85
2022-12-06T23:21:42.881Z,6.50
2022-12-06T23:24:11.805Z,7.20
2022-12-06T23:26:44.438Z,6.63
2022-12-06T23:31:40.644Z,6.40
2022-12-06T23:34:14.525Z,5.95
2022-12-06T23:36:41.622Z,7.13
2022-12-06T23:39:08.337Z,6.90
2022-12-06T23:41:36.038Z,6.88
2022-12-06T23:44:02.995Z,6.68
2022-12-06T23:46:31.894Z,5.60
2022-12-06T23:48:59.525Z,6.63
2022-12-06T23:51:34.477Z,5.63
2022-12-06T23:54:03.154Z,5.82
2022-12-06T23:56:32.974Z,6.05
2022-12-06T23:59:00.910Z,5.40
